Time;durP1;ratioP1;P1;durP2;ratioP2;P2;SDS_P1;SDS_P2;PMS_P1;PMS_P2;Temp;Humidity;BMP_temperature;BMP_pressure;BME280_temperature;BME280_humidity;BME280_pressure;Samples;Min_cycle;Max_cycle;Signal;HPM_P1;HPM_P2
2021/12/09 00:01:07;;;;;;;60.70;31.27;;;2.10;99.90;;;;;;5042756;28;20037;-86
2021/12/09 00:03:35;;;;;;;65.43;33.53;;;2.10;99.90;;;;;;5045407;28;20039;-85
2021/12/09 00:06:04;;;;;;;64.32;33.80;;;2.00;99.90;;;;;;5070390;28;20035;-85
2021/12/09 00:08:30;;;;;;;59.08;32.45;;;2.00;99.90;;;;;;5057881;28;20029;-85
2021/12/09 00:11:00;;;;;;;66.70;34.17;;;2.10;99.90;;;;;;5037387;28;20442;-86
2021/12/09 00:13:27;;;;;;;63.88;34.08;;;2.10;99.90;;;;;;5022548;28;20355;-86
2021/12/09 00:15:54;;;;;;;60.67;33.08;;;2.10;99.90;;;;;;5021549;28;20068;-86
2021/12/09 00:18:23;;;;;;;60.15;32.40;;;2.10;99.90;;;;;;5023680;28;20117;-87
2021/12/09 00:20:48;;;;;;;70.00;34.75;;;2.10;99.90;;;;;;5021738;28;20127;-85
2021/12/09 00:23:14;;;;;;;60.40;31.98;;;2.10;99.90;;;;;;5022905;28;20034;-85
2021/12/09 00:25:40;;;;;;;67.07;34.92;;;2.10;99.90;;;;;;5020095;28;20037;-87
2021/12/09 00:28:07;;;;;;;62.75;32.20;;;2.10;99.90;;;;;;5021670;28;20030;-86
2021/12/09 00:30:36;;;;;;;65.43;34.83;;;2.10;99.90;;;;;;5029783;28;20021;-86
2021/12/09 00:33:04;;;;;;;63.22;33.67;;;2.20;99.90;;;;;;5045946;28;20109;-85
2021/12/09 00:35:32;;;;;;;62.88;34.70;;;2.20;99.90;;;;;;5052826;28;20045;-84
2021/12/09 00:38:05;;;;;;;61.85;32.38;;;2.20;99.90;;;;;;5042993;28;20045;-85
2021/12/09 00:40:34;;;;;;;65.75;36.33;;;2.20;99.90;;;;;;5044477;28;20040;-84
2021/12/09 00:43:00;;;;;;;61.45;33.53;;;2.20;99.90;;;;;;5046415;28;20048;-84
2021/12/09 00:45:26;;;;;;;64.55;33.33;;;2.10;99.90;;;;;;5044100;28;20099;-86
2021/12/09 00:47:52;;;;;;;62.03;35.38;;;2.10;99.90;;;;;;5043001;28;20029;-84
2021/12/09 00:50:19;;;;;;;64.47;35.08;;;2.00;99.90;;;;;;5043805;28;20399;-85
2021/12/09 00:52:46;;;;;;;66.63;34.95;;;2.00;99.90;;;;;;5047499;28;20404;-85
2021/12/09 00:55:12;;;;;;;63.40;33.90;;;2.00;99.90;;;;;;5049764;28;20036;-87
2021/12/09 00:57:39;;;;;;;66.57;35.08;;;2.00;99.90;;;;;;5063787;28;20045;-84
2021/12/09 01:00:12;;;;;;;68.50;34.47;;;2.10;99.90;;;;;;5042628;28;20453;-85
2021/12/09 01:02:37;;;;;;;63.75;33.92;;;2.00;99.90;;;;;;5042335;28;20069;-86
2021/12/09 01:05:05;;;;;;;65.07;33.47;;;2.00;99.90;;;;;;5042340;28;20071;-87
2021/12/09 01:07:31;;;;;;;63.42;33.00;;;2.00;99.90;;;;;;5042185;28;20040;-85
2021/12/09 01:09:57;;;;;;;71.20;33.65;;;2.10;99.90;;;;;;5044173;28;20082;-86
2021/12/09 01:12:26;;;;;;;66.68;33.08;;;2.20;99.90;;;;;;5047554;28;20033;-84
2021/12/09 01:14:52;;;;;;;68.47;34.67;;;2.10;99.90;;;;;;5049514;28;20036;-85
2021/12/09 01:17:18;;;;;;;65.07;32.97;;;2.20;99.90;;;;;;5073333;28;20044;-83
2021/12/09 01:19:44;;;;;;;70.38;36.55;;;2.10;99.90;;;;;;5052379;28;20455;-83
2021/12/09 01:22:09;;;;;;;67.32;36.45;;;2.00;99.90;;;;;;5057767;28;20036;-83
2021/12/09 01:24:35;;;;;;;62.35;32.20;;;2.10;99.90;;;;;;5035719;28;20082;-82
2021/12/09 01:27:01;;;;;;;68.53;34.80;;;2.00;99.90;;;;;;5034845;28;20096;-85
2021/12/09 01:29:39;;;;;;;62.58;33.95;;;2.10;99.90;;;;;;5047627;28;20083;-86
2021/12/09 01:32:08;;;;;;;70.68;36.60;;;2.00;99.90;;;;;;5039060;28;20041;-83
2021/12/09 01:34:36;;;;;;;62.42;34.83;;;2.00;99.90;;;;;;5043837;28;20044;-84
2021/12/09 01:37:02;;;;;;;70.78;35.22;;;2.00;99.90;;;;;;5040950;28;20073;-84
2021/12/09 01:39:30;;;;;;;68.45;33.65;;;1.90;99.90;;;;;;5040884;28;20079;-85
2021/12/09 01:42:08;;;;;;;;;;;;;;;;;;;;;
2021/12/09 01:44:34;;;;;;;63.38;34.50;;;1.90;99.90;;;;;;5057176;28;20037;-84
2021/12/09 01:46:59;;;;;;;67.35;35.45;;;2.00;99.90;;;;;;5024168;28;20373;-85
2021/12/09 01:49:25;;;;;;;68.38;33.28;;;2.10;99.90;;;;;;5037477;28;20060;-84
2021/12/09 01:51:52;;;;;;;69.63;34.00;;;2.10;99.90;;;;;;5039615;28;20053;-84
2021/12/09 01:54:18;;;;;;;70.65;35.80;;;2.10;99.90;;;;;;5037658;28;20025;-83
2021/12/09 01:56:44;;;;;;;66.63;35.83;;;2.10;99.90;;;;;;5040085;28;20523;-83
2021/12/09 01:59:10;;;;;;;64.00;34.38;;;2.10;99.90;;;;;;5040438;28;20025;-84
2021/12/09 02:01:37;;;;;;;70.75;36.15;;;2.20;99.90;;;;;;5041137;28;20119;-83
2021/12/09 02:04:06;;;;;;;68.18;35.15;;;2.20;99.90;;;;;;5055963;28;20030;-84
2021/12/09 02:06:33;;;;;;;66.00;35.10;;;2.20;99.90;;;;;;5038586;28;20021;-85
2021/12/09 02:08:59;;;;;;;70.75;36.00;;;2.30;99.90;;;;;;5042374;28;20024;-85
2021/12/09 02:11:25;;;;;;;65.45;35.60;;;2.30;99.90;;;;;;5036878;28;20029;-84
2021/12/09 02:13:55;;;;;;;67.50;35.22;;;2.30;99.90;;;;;;5037904;28;20056;-84
2021/12/09 02:16:21;;;;;;;65.55;36.25;;;2.20;99.90;;;;;;5037450;28;20086;-85
2021/12/09 02:18:48;;;;;;;68.00;33.83;;;2.30;99.90;;;;;;5036602;28;20036;-84
2021/12/09 02:21:19;;;;;;;65.50;35.33;;;2.20;99.90;;;;;;5037162;28;20041;-85
2021/12/09 02:23:48;;;;;;;73.63;37.88;;;2.20;99.90;;;;;;5041008;28;20025;-84
2021/12/09 02:26:15;;;;;;;62.50;34.70;;;2.10;99.90;;;;;;5036397;28;20052;-84
2021/12/09 02:28:42;;;;;;;69.85;36.78;;;2.10;99.90;;;;;;5050526;28;20040;-85
2021/12/09 02:31:09;;;;;;;64.68;35.03;;;2.10;99.90;;;;;;5042340;28;20033;-84
2021/12/09 02:33:35;;;;;;;68.82;36.25;;;2.00;99.90;;;;;;5042689;28;20033;-85
2021/12/09 02:36:01;;;;;;;72.45;36.15;;;2.00;99.90;;;;;;5061143;28;20025;-84
2021/12/09 02:38:26;;;;;;;69.38;35.35;;;1.90;99.90;;;;;;5054408;28;20051;-85
2021/12/09 02:40:58;;;;;;;65.10;35.00;;;1.90;99.90;;;;;;5055518;28;20045;-85
2021/12/09 02:43:27;;;;;;;66.05;35.35;;;1.90;99.90;;;;;;5045834;28;20056;-84
2021/12/09 02:45:53;;;;;;;71.75;38.45;;;1.90;99.90;;;;;;5046346;28;20036;-83
2021/12/09 02:48:20;;;;;;;69.85;37.13;;;2.00;99.90;;;;;;5045949;28;20025;-85
2021/12/09 02:50:47;;;;;;;72.95;35.50;;;2.00;99.90;;;;;;5060011;28;20029;-85
2021/12/09 02:53:16;;;;;;;66.40;35.65;;;2.10;99.90;;;;;;5042073;28;20060;-84
2021/12/09 02:55:43;;;;;;;64.63;34.53;;;2.10;99.90;;;;;;5066421;28;20028;-84
2021/12/09 02:58:08;;;;;;;67.90;36.85;;;2.20;99.90;;;;;;5059192;28;20025;-84
2021/12/09 03:01:01;;;;;;;66.43;35.55;;;2.30;99.90;;;;;;5056508;28;20044;-85
2021/12/09 03:03:28;;;;;;;69.90;35.95;;;2.20;99.90;;;;;;5056674;28;20029;-86
2021/12/09 03:05:58;;;;;;;65.68;36.58;;;2.30;99.90;;;;;;5041101;28;20115;-84
2021/12/09 03:08:34;;;;;;;63.72;35.45;;;2.30;99.90;;;;;;5039354;28;20032;-84
2021/12/09 03:11:26;;;;;;;64.90;33.70;;;2.40;99.90;;;;;;5039000;28;20044;-84
2021/12/09 03:13:55;;;;;;;63.90;34.42;;;2.40;99.90;;;;;;5035813;28;20130;-85
2021/12/09 03:16:22;;;;;;;69.80;36.65;;;2.30;99.90;;;;;;5039531;28;20175;-85
2021/12/09 03:19:03;;;;;;;73.60;35.55;;;2.30;99.90;;;;;;5040768;28;20040;-85
2021/12/09 03:21:36;;;;;;;69.53;35.92;;;2.20;99.90;;;;;;5039812;28;20033;-85
2021/12/09 03:24:05;;;;;;;66.65;35.58;;;2.10;99.90;;;;;;5024686;28;20033;-87
2021/12/09 03:26:34;;;;;;;70.03;37.30;;;2.10;99.90;;;;;;5025395;28;20043;-85
2021/12/09 03:29:06;;;;;;;70.60;37.33;;;2.10;99.90;;;;;;5023763;28;20033;-85
2021/12/09 03:31:32;;;;;;;68.07;36.00;;;2.10;99.90;;;;;;5058428;28;20025;-85
2021/12/09 03:33:59;;;;;;;71.20;37.08;;;2.00;99.90;;;;;;5040178;28;20037;-86
2021/12/09 03:36:28;;;;;;;65.22;35.75;;;2.00;99.90;;;;;;5057881;28;20045;-85
2021/12/09 03:38:58;;;;;;;71.75;38.33;;;1.90;99.90;;;;;;5041829;28;20047;-84
2021/12/09 03:41:23;;;;;;;70.68;37.13;;;1.90;99.90;;;;;;5041391;28;20037;-85
2021/12/09 03:43:49;;;;;;;71.45;36.47;;;1.90;99.90;;;;;;5040337;28;20028;-85
2021/12/09 03:46:15;;;;;;;77.55;39.20;;;1.90;99.90;;;;;;5040602;28;20112;-86
2021/12/09 03:48:41;;;;;;;72.05;38.42;;;2.00;99.90;;;;;;5038956;28;20071;-86
2021/12/09 03:51:06;;;;;;;75.22;36.92;;;2.00;99.90;;;;;;5042285;28;20037;-85
2021/12/09 03:53:32;;;;;;;70.88;35.38;;;2.10;99.90;;;;;;5024038;28;20028;-86
2021/12/09 03:55:58;;;;;;;69.45;36.33;;;2.10;99.90;;;;;;5040011;28;20029;-84
2021/12/09 03:58:26;;;;;;;74.05;37.55;;;2.20;99.90;;;;;;5056323;28;20118;-85
2021/12/09 04:00:52;;;;;;;69.00;37.78;;;2.20;99.90;;;;;;5007552;28;20040;-87
2021/12/09 04:03:18;;;;;;;71.90;37.67;;;2.20;99.90;;;;;;5023720;28;20063;-86
2021/12/09 04:05:48;;;;;;;73.03;38.75;;;2.20;99.90;;;;;;5040480;28;20041;-85
2021/12/09 04:08:15;;;;;;;68.10;35.97;;;2.30;99.90;;;;;;5042568;28;20040;-86
2021/12/09 04:10:40;;;;;;;76.80;38.50;;;2.20;99.90;;;;;;5057793;28;20028;-84
2021/12/09 04:13:06;;;;;;;73.85;37.15;;;2.20;99.90;;;;;;5042024;28;20102;-86
2021/12/09 04:15:32;;;;;;;72.22;37.67;;;2.10;99.90;;;;;;5059782;28;20043;-83
2021/12/09 04:17:58;;;;;;;67.03;36.63;;;2.20;99.90;;;;;;5062171;28;20048;-85
2021/12/09 04:20:24;;;;;;;73.15;39.78;;;2.20;99.90;;;;;;5059706;28;20033;-86
2021/12/09 04:22:50;;;;;;;71.85;37.17;;;2.10;99.90;;;;;;5010112;28;20090;-86
2021/12/09 04:25:18;;;;;;;68.18;37.03;;;2.20;99.90;;;;;;5051701;28;20037;-85
2021/12/09 04:27:44;;;;;;;71.47;36.97;;;2.20;99.90;;;;;;5036830;28;20508;-86
2021/12/09 04:30:11;;;;;;;66.07;36.53;;;2.20;99.90;;;;;;5050141;28;20085;-86
2021/12/09 04:32:36;;;;;;;70.53;37.78;;;2.20;99.90;;;;;;5074793;28;20424;-85
2021/12/09 04:35:02;;;;;;;73.18;37.65;;;2.20;99.90;;;;;;5045880;28;20135;-84
2021/12/09 04:37:28;;;;;;;72.63;39.45;;;2.20;99.90;;;;;;5043270;28;20036;-85
2021/12/09 04:39:54;;;;;;;79.10;38.45;;;2.10;99.90;;;;;;5043369;28;20395;-86
2021/12/09 04:42:19;;;;;;;70.45;37.47;;;2.20;99.90;;;;;;5043613;28;20025;-85
2021/12/09 04:44:45;;;;;;;69.18;37.30;;;2.10;99.90;;;;;;5048054;28;20029;-85
2021/12/09 04:47:11;;;;;;;68.68;37.40;;;2.20;99.90;;;;;;5059947;28;20459;-85
2021/12/09 04:49:37;;;;;;;75.85;38.70;;;2.30;99.90;;;;;;5058530;28;20033;-84
2021/12/09 04:52:04;;;;;;;73.78;36.00;;;2.30;99.90;;;;;;5050101;28;20140;-84
2021/12/09 04:54:30;;;;;;;73.75;38.15;;;2.30;99.90;;;;;;5059335;28;20032;-84
2021/12/09 04:56:55;;;;;;;71.55;37.20;;;2.30;99.90;;;;;;5042650;28;20064;-83
2021/12/09 04:59:21;;;;;;;68.57;38.42;;;2.20;99.90;;;;;;5042178;28;20053;-84
2021/12/09 05:01:50;;;;;;;67.43;36.13;;;2.20;99.90;;;;;;5042907;28;20029;-85
2021/12/09 05:04:16;;;;;;;68.75;37.55;;;2.10;99.90;;;;;;5041952;28;20036;-84
2021/12/09 05:06:44;;;;;;;73.68;38.28;;;2.10;99.90;;;;;;5041722;28;20045;-85
2021/12/09 05:09:17;;;;;;;68.15;35.78;;;2.10;99.90;;;;;;5042394;28;20099;-85
2021/12/09 05:14:08;;;;;;;73.60;38.75;;;2.20;99.90;;;;;;5060307;28;20028;-87
2021/12/09 05:16:34;;;;;;;66.95;36.05;;;2.30;99.90;;;;;;5042267;28;20068;-86
2021/12/09 05:19:01;;;;;;;73.55;38.30;;;2.20;99.90;;;;;;5042134;28;20485;-85
2021/12/09 05:21:45;;;;;;;67.30;38.10;;;2.20;99.90;;;;;;5051795;28;20150;-86
2021/12/09 05:24:12;;;;;;;76.18;39.70;;;2.20;99.90;;;;;;5060366;28;20029;-85
2021/12/09 05:26:52;;;;;;;71.47;38.17;;;2.20;99.90;;;;;;5042076;28;20527;-85
2021/12/09 05:29:21;;;;;;;74.75;37.10;;;2.20;99.90;;;;;;5042421;28;20079;-86
2021/12/09 05:34:33;;;;;;;76.13;38.42;;;2.30;99.90;;;;;;5058787;28;20033;-85
2021/12/09 05:36:58;;;;;;;68.15;37.03;;;2.20;99.90;;;;;;5040968;28;20055;-85
2021/12/09 05:39:24;;;;;;;76.25;38.55;;;2.20;99.90;;;;;;5042027;28;20045;-84
2021/12/09 05:41:51;;;;;;;71.00;37.33;;;2.30;99.90;;;;;;5044544;28;20060;-85
2021/12/09 05:44:16;;;;;;;69.63;36.50;;;2.30;99.90;;;;;;5046826;28;20406;-84
2021/12/09 05:46:46;;;;;;;71.85;37.28;;;2.20;99.90;;;;;;5044526;28;20036;-85
2021/12/09 05:49:14;;;;;;;66.50;36.40;;;2.10;99.90;;;;;;5044072;28;20029;-85
2021/12/09 05:51:41;;;;;;;79.85;40.60;;;2.10;99.90;;;;;;5043711;28;20032;-84
2021/12/09 05:54:07;;;;;;;71.43;37.30;;;2.20;99.90;;;;;;5042004;28;20037;-86
2021/12/09 05:56:34;;;;;;;74.60;38.67;;;2.20;99.90;;;;;;5034795;28;20048;-84
2021/12/09 05:59:00;;;;;;;76.00;39.88;;;2.20;99.90;;;;;;5013280;28;20037;-85
2021/12/09 06:01:25;;;;;;;69.28;39.22;;;2.30;99.90;;;;;;5057750;28;20056;-84
2021/12/09 06:03:51;;;;;;;73.68;38.50;;;2.20;99.90;;;;;;5060325;28;20021;-83
2021/12/09 06:06:18;;;;;;;68.63;36.92;;;2.20;99.90;;;;;;5077106;28;20041;-87
2021/12/09 06:08:43;;;;;;;71.45;37.78;;;2.20;99.90;;;;;;5059864;28;20038;-83
2021/12/09 06:11:11;;;;;;;72.57;38.50;;;2.20;99.90;;;;;;5052780;28;20083;-85
2021/12/09 06:13:37;;;;;;;75.35;39.38;;;2.10;99.90;;;;;;5049054;28;20068;-84
2021/12/09 06:16:08;;;;;;;72.78;38.45;;;2.10;99.90;;;;;;5050359;28;20025;-86
2021/12/09 06:18:33;;;;;;;82.30;40.35;;;2.00;99.90;;;;;;5049319;28;20036;-87
2021/12/09 06:20:59;;;;;;;72.43;40.35;;;2.00;99.90;;;;;;5051246;28;20055;-84
2021/12/09 06:23:25;;;;;;;74.75;38.25;;;1.90;99.90;;;;;;5056705;28;20036;-84
2021/12/09 06:25:52;;;;;;;80.45;42.35;;;1.90;99.90;;;;;;5053508;28;20389;-85
2021/12/09 06:28:22;;;;;;;76.32;40.70;;;1.90;99.90;;;;;;5072408;28;20165;-85
2021/12/09 06:30:48;;;;;;;79.97;39.55;;;1.90;99.90;;;;;;5048099;28;20541;-85
2021/12/09 06:33:13;;;;;;;80.25;39.22;;;1.90;99.90;;;;;;5034443;28;20041;-83
2021/12/09 06:35:39;;;;;;;78.68;40.20;;;1.90;99.90;;;;;;5071057;28;20036;-86
2021/12/09 06:38:11;;;;;;;84.38;42.92;;;1.90;99.90;;;;;;5042503;28;20037;-84
2021/12/09 06:40:37;;;;;;;77.68;42.30;;;2.00;99.90;;;;;;5044051;28;20052;-87
2021/12/09 06:43:03;;;;;;;83.00;40.78;;;1.90;99.90;;;;;;5044640;28;20033;-86
2021/12/09 06:45:30;;;;;;;76.63;39.25;;;1.90;99.90;;;;;;5062715;28;20021;-84
2021/12/09 06:47:55;;;;;;;91.35;45.08;;;1.90;99.90;;;;;;5027553;28;20040;-86
2021/12/09 06:50:22;;;;;;;86.85;45.72;;;2.00;99.90;;;;;;5048363;28;20041;-85
2021/12/09 06:52:48;;;;;;;79.97;42.65;;;2.00;99.90;;;;;;5060038;28;20025;-86
2021/12/09 06:55:16;;;;;;;82.72;42.03;;;2.10;99.90;;;;;;5063492;28;20095;-86
2021/12/09 06:57:43;;;;;;;86.22;43.28;;;2.10;99.90;;;;;;5058167;28;20036;-85
2021/12/09 07:00:15;;;;;;;87.53;44.58;;;2.10;99.90;;;;;;5069169;28;20033;-84
2021/12/09 07:02:40;;;;;;;78.78;41.67;;;2.10;99.90;;;;;;5059806;28;20025;-84
2021/12/09 07:05:08;;;;;;;77.50;41.05;;;2.00;99.90;;;;;;5062099;28;20052;-85
2021/12/09 07:07:34;;;;;;;87.15;42.35;;;2.10;99.90;;;;;;5070429;28;20025;-85
2021/12/09 07:10:00;;;;;;;87.30;44.45;;;2.00;99.90;;;;;;5059510;28;20025;-86
2021/12/09 07:12:25;;;;;;;77.72;40.40;;;2.00;99.90;;;;;;5041097;28;20063;-85
2021/12/09 07:14:51;;;;;;;80.72;40.38;;;2.00;99.90;;;;;;5059018;28;20029;-86
2021/12/09 07:17:17;;;;;;;82.80;42.95;;;2.00;99.90;;;;;;5041563;28;20060;-86
2021/12/09 07:19:43;;;;;;;85.10;43.30;;;2.00;99.90;;;;;;5041934;28;20170;-84
2021/12/09 07:22:09;;;;;;;91.25;43.72;;;2.00;99.90;;;;;;5044546;28;20033;-87
2021/12/09 07:24:35;;;;;;;83.00;42.97;;;2.00;99.90;;;;;;5060806;28;20542;-86
2021/12/09 07:27:00;;;;;;;76.65;41.85;;;1.90;99.90;;;;;;5079349;28;20027;-86
2021/12/09 07:29:27;;;;;;;81.10;40.35;;;1.90;99.90;;;;;;5043712;28;20075;-86
2021/12/09 07:31:53;;;;;;;90.38;44.20;;;2.00;99.90;;;;;;5034982;28;20033;-83
2021/12/09 07:34:18;;;;;;;83.30;43.45;;;2.00;99.90;;;;;;5023730;28;20082;-85
2021/12/09 07:36:44;;;;;;;88.07;44.80;;;2.00;99.90;;;;;;5041639;28;20044;-84
2021/12/09 07:39:10;;;;;;;85.60;44.05;;;2.00;99.90;;;;;;5023531;28;20075;-85
2021/12/09 07:41:36;;;;;;;83.78;42.50;;;2.00;99.90;;;;;;5033375;28;20030;-85
2021/12/09 07:44:05;;;;;;;80.40;43.55;;;2.10;99.90;;;;;;5043694;28;20499;-82
2021/12/09 07:46:31;;;;;;;75.05;41.30;;;2.10;99.90;;;;;;5042582;28;20446;-85
2021/12/09 07:48:57;;;;;;;83.97;43.50;;;2.10;99.90;;;;;;5060566;28;20033;-87
2021/12/09 07:51:23;;;;;;;89.45;45.00;;;2.20;99.90;;;;;;5044965;28;20064;-83
2021/12/09 07:53:48;;;;;;;89.40;45.58;;;2.00;99.90;;;;;;5042818;28;20092;-84
2021/12/09 07:56:14;;;;;;;88.22;45.33;;;2.00;99.90;;;;;;5043248;28;20033;-84
2021/12/09 07:58:40;;;;;;;92.72;45.63;;;2.10;99.90;;;;;;5045935;28;20029;-82
2021/12/09 08:01:05;;;;;;;85.50;43.60;;;2.10;99.90;;;;;;5042681;28;20108;-83
2021/12/09 08:03:31;;;;;;;98.07;44.55;;;2.10;99.90;;;;;;5040490;28;20215;-84
2021/12/09 08:05:57;;;;;;;88.85;44.35;;;2.00;99.90;;;;;;5042822;28;20056;-83
2021/12/09 08:08:22;;;;;;;84.30;44.13;;;2.10;99.90;;;;;;5025877;28;20030;-84
2021/12/09 08:10:48;;;;;;;90.97;43.90;;;2.10;99.90;;;;;;5038048;28;20029;-85
2021/12/09 08:13:14;;;;;;;87.38;45.25;;;2.10;99.90;;;;;;5039238;28;20123;-84
2021/12/09 08:15:45;;;;;;;86.45;41.92;;;2.00;99.90;;;;;;5042931;28;20037;-84
2021/12/09 08:20:52;;;;;;;88.43;43.30;;;2.10;99.90;;;;;;5059055;28;20035;-84
2021/12/09 08:23:18;;;;;;;84.32;43.80;;;2.10;99.90;;;;;;5022788;28;20072;-84
2021/12/09 08:25:47;;;;;;;82.68;42.97;;;2.00;99.90;;;;;;5040919;28;20124;-84
2021/12/09 08:28:13;;;;;;;89.60;44.63;;;2.00;99.90;;;;;;5024000;28;20037;-84
2021/12/09 08:30:46;;;;;;;87.72;44.72;;;2.00;99.90;;;;;;5024294;28;20087;-84
2021/12/09 08:33:12;;;;;;;97.68;45.60;;;2.00;99.90;;;;;;5041980;28;20108;-84
2021/12/09 08:35:38;;;;;;;99.18;49.15;;;2.00;99.90;;;;;;5043431;28;20029;-83
2021/12/09 08:38:05;;;;;;;95.50;45.88;;;1.90;99.90;;;;;;5034200;28;20059;-83
2021/12/09 08:40:31;;;;;;;93.70;44.85;;;1.90;99.90;;;;;;5046475;28;20097;-83
2021/12/09 08:42:57;;;;;;;103.40;49.15;;;2.00;99.90;;;;;;5045112;28;20478;-83
2021/12/09 08:45:23;;;;;;;95.50;45.70;;;1.90;99.90;;;;;;5042185;28;20076;-86
2021/12/09 08:47:49;;;;;;;92.47;43.45;;;2.00;99.90;;;;;;5040879;28;20040;-85
2021/12/09 08:50:21;;;;;;;90.40;46.88;;;2.10;99.90;;;;;;5042545;28;20025;-84
2021/12/09 08:52:50;;;;;;;96.85;45.13;;;2.00;99.90;;;;;;5025655;28;20113;-85
2021/12/09 08:55:17;;;;;;;86.57;42.97;;;2.10;99.90;;;;;;5043344;28;20461;-85
2021/12/09 08:57:43;;;;;;;89.20;43.80;;;2.10;99.90;;;;;;5021629;28;20034;-85
2021/12/09 09:00:12;;;;;;;90.30;44.85;;;2.10;99.90;;;;;;5042749;28;20032;-86
2021/12/09 09:02:41;;;;;;;86.82;45.63;;;2.10;99.90;;;;;;5045110;28;20465;-86
2021/12/09 09:05:10;;;;;;;88.47;45.25;;;2.10;99.90;;;;;;5061574;28;20036;-84
2021/12/09 09:07:37;;;;;;;92.93;45.78;;;2.20;99.90;;;;;;5044244;28;20044;-84
2021/12/09 09:10:05;;;;;;;95.07;44.83;;;2.20;99.90;;;;;;5044064;28;20033;-84
2021/12/09 09:12:33;;;;;;;91.93;45.55;;;2.20;99.90;;;;;;5035016;28;20030;-85
2021/12/09 09:14:59;;;;;;;82.93;43.15;;;2.30;99.90;;;;;;5044542;28;20116;-84
2021/12/09 09:17:25;;;;;;;93.32;46.72;;;2.20;99.90;;;;;;5053009;28;20044;-85
2021/12/09 09:19:51;;;;;;;88.18;45.22;;;2.30;99.90;;;;;;5042751;28;20059;-83
2021/12/09 09:22:16;;;;;;;92.25;45.53;;;2.30;99.90;;;;;;5044125;28;20545;-83
2021/12/09 09:24:45;;;;;;;86.95;44.80;;;2.40;99.90;;;;;;5046487;28;20054;-82
2021/12/09 09:27:12;;;;;;;92.65;46.65;;;2.40;99.90;;;;;;5054519;28;20032;-83
2021/12/09 09:29:40;;;;;;;84.70;44.55;;;2.50;99.90;;;;;;5027399;28;20033;-83
2021/12/09 09:32:07;;;;;;;86.22;44.72;;;2.50;99.90;;;;;;5041084;28;20033;-82
2021/12/09 09:34:33;;;;;;;92.03;45.70;;;2.60;99.90;;;;;;5043225;28;20063;-84
2021/12/09 09:36:58;;;;;;;102.28;47.35;;;2.60;99.90;;;;;;5043944;28;20041;-83
2021/12/09 09:39:29;;;;;;;94.95;47.72;;;2.70;99.90;;;;;;5043416;28;20051;-82
2021/12/09 09:42:06;;;;;;;92.13;47.45;;;2.70;99.90;;;;;;5043397;28;20059;-83
2021/12/09 09:44:45;;;;;;;93.10;46.20;;;2.70;99.90;;;;;;5043710;28;20639;-84
2021/12/09 09:47:11;;;;;;;97.72;47.60;;;2.70;99.90;;;;;;5037394;28;20029;-84
2021/12/09 09:49:37;;;;;;;98.97;47.17;;;2.70;99.90;;;;;;5043437;28;20515;-82
2021/12/09 09:52:08;;;;;;;102.43;46.13;;;2.80;99.90;;;;;;5038676;28;20036;-87
2021/12/09 09:54:37;;;;;;;102.45;49.33;;;2.90;99.90;;;;;;5027373;28;20550;-85
2021/12/09 09:57:05;;;;;;;97.82;47.85;;;3.20;99.90;;;;;;5029461;28;20089;-81
2021/12/09 09:59:31;;;;;;;99.05;48.95;;;3.30;99.90;;;;;;5026659;28;20392;-82
2021/12/09 10:01:57;;;;;;;101.97;49.00;;;3.30;99.90;;;;;;5068180;28;20032;-82
2021/12/09 10:04:33;;;;;;;96.15;49.75;;;3.10;99.90;;;;;;5043274;28;20029;-84
2021/12/09 10:07:00;;;;;;;102.88;52.95;;;3.00;99.90;;;;;;5042590;28;20484;-83
2021/12/09 10:09:26;;;;;;;98.57;50.10;;;3.00;99.90;;;;;;5060160;28;20061;-82
2021/12/09 10:11:55;;;;;;;106.25;49.55;;;2.90;99.90;;;;;;5026884;28;20036;-84
2021/12/09 10:14:32;;;;;;;103.90;50.40;;;2.90;99.90;;;;;;5042014;28;20040;-83
2021/12/09 10:17:09;;;;;;;94.15;48.88;;;3.00;99.90;;;;;;5062107;28;20033;-84
2021/12/09 10:19:37;;;;;;;106.10;50.92;;;2.90;99.90;;;;;;5044177;28;20044;-82
2021/12/09 10:22:12;;;;;;;101.10;51.00;;;3.00;99.90;;;;;;5044871;28;20033;-84
2021/12/09 10:24:40;;;;;;;101.90;48.97;;;3.00;99.90;;;;;;5042243;28;20029;-84
2021/12/09 10:27:08;;;;;;;98.15;48.22;;;3.00;99.90;;;;;;5026728;28;20040;-81
2021/12/09 10:29:40;;;;;;;94.80;47.22;;;3.00;99.90;;;;;;5022446;28;20041;-82
2021/12/09 10:32:10;;;;;;;104.28;49.80;;;3.10;99.90;;;;;;5021697;28;20028;-81
2021/12/09 10:34:42;;;;;;;102.60;48.53;;;3.10;99.90;;;;;;5021854;28;20076;-80
2021/12/09 10:37:12;;;;;;;102.78;50.50;;;3.10;99.90;;;;;;5038529;28;20037;-83
2021/12/09 10:39:42;;;;;;;97.18;47.65;;;3.00;99.90;;;;;;5019856;28;20037;-81
2021/12/09 10:42:12;;;;;;;103.20;48.13;;;3.00;99.90;;;;;;5024995;28;20048;-80
2021/12/09 10:44:54;;;;;;;101.95;47.65;;;3.00;99.90;;;;;;5020320;28;20037;-81
2021/12/09 10:47:45;;;;;;;99.35;51.33;;;3.00;99.90;;;;;;5019549;28;20078;-83
2021/12/09 10:50:34;;;;;;;100.72;51.75;;;3.10;99.90;;;;;;5029550;28;20017;-80
2021/12/09 10:53:35;;;;;;;99.38;47.92;;;3.00;99.90;;;;;;5038696;28;20116;-81
2021/12/09 10:56:10;;;;;;;106.72;51.08;;;3.00;99.90;;;;;;5062026;28;20125;-80
2021/12/09 10:58:44;;;;;;;104.60;48.85;;;3.00;99.90;;;;;;5040793;28;20025;-81
2021/12/09 11:01:16;;;;;;;103.05;52.63;;;3.00;99.90;;;;;;5025994;28;20039;-84
2021/12/09 11:03:45;;;;;;;99.80;48.60;;;3.00;99.90;;;;;;5026315;28;20053;-82
2021/12/09 11:06:17;;;;;;;102.05;51.72;;;2.90;99.90;;;;;;5042730;28;20024;-82
2021/12/09 11:08:48;;;;;;;97.53;49.85;;;2.90;99.90;;;;;;5041930;28;20098;-84
2021/12/09 11:11:17;;;;;;;98.75;52.40;;;2.90;99.90;;;;;;5041849;28;20025;-83
2021/12/09 11:13:54;;;;;;;99.57;50.30;;;2.90;99.90;;;;;;5040915;28;20029;-83
2021/12/09 11:16:27;;;;;;;103.90;49.38;;;2.80;99.90;;;;;;5042393;28;20372;-84
2021/12/09 11:19:06;;;;;;;106.15;53.50;;;2.80;99.90;;;;;;5062629;28;20036;-83
2021/12/09 11:21:37;;;;;;;100.13;51.65;;;2.70;99.90;;;;;;5044921;28;20033;-80
2021/12/09 11:24:06;;;;;;;94.05;48.25;;;2.70;99.90;;;;;;5060610;28;20033;-83
2021/12/09 11:29:25;;;;;;;97.30;49.03;;;2.80;99.90;;;;;;5060341;28;20025;-85
2021/12/09 11:32:03;;;;;;;98.50;48.58;;;2.80;99.90;;;;;;5058810;28;20032;-83
2021/12/09 11:34:49;;;;;;;97.38;49.55;;;2.90;99.90;;;;;;5040765;28;20128;-82
2021/12/09 11:39:53;;;;;;;99.88;49.80;;;2.90;99.90;;;;;;5056653;28;20025;-80
2021/12/09 11:42:26;;;;;;;100.28;50.20;;;2.90;99.90;;;;;;5041556;28;20039;-82
2021/12/09 11:44:52;;;;;;;92.45;48.25;;;3.00;99.90;;;;;;5039835;28;20031;-82
2021/12/09 11:47:18;;;;;;;104.30;49.08;;;3.00;99.90;;;;;;5057733;28;20033;-82
2021/12/09 11:49:45;;;;;;;95.47;49.70;;;3.00;99.90;;;;;;5041274;28;20086;-82
2021/12/09 11:52:13;;;;;;;96.25;49.95;;;3.00;99.90;;;;;;5039976;28;20037;-82
2021/12/09 11:54:40;;;;;;;98.05;50.17;;;3.00;99.90;;;;;;5057830;28;20036;-84
2021/12/09 11:57:17;;;;;;;103.15;52.33;;;3.00;99.90;;;;;;5041240;28;20118;-81
2021/12/09 12:11:09;;;;;;;102.90;52.88;;;2.80;99.90;;;;;;5056327;28;20078;-82
2021/12/09 12:13:58;;;;;;;103.68;50.60;;;2.90;99.90;;;;;;5039606;28;20505;-82
2021/12/09 12:22:03;;;;;;;104.15;54.42;;;2.70;99.90;;;;;;5056653;28;20089;-83
2021/12/09 12:27:30;;;;;;;104.82;52.15;;;2.80;99.90;;;;;;5058416;28;20040;-82
2021/12/09 12:40:34;;;;;;;103.88;54.10;;;2.80;99.90;;;;;;5061696;28;20559;-85
2021/12/09 12:43:05;;;;;;;110.68;54.17;;;2.70;99.90;;;;;;5044644;28;20044;-82
2021/12/09 12:48:31;;;;;;;;;;;2.70;99.90;;;;;;5068055;28;20101;-82
2021/12/09 12:54:03;;;;;;;111.13;56.17;;;2.70;99.90;;;;;;5068353;28;20037;-82
2021/12/09 12:56:42;;;;;;;126.30;55.47;;;2.70;99.90;;;;;;5065290;28;20035;-81
2021/12/09 12:59:12;;;;;;;100.95;50.83;;;2.70;99.90;;;;;;5063887;28;20105;-80
2021/12/09 13:01:43;;;;;;;103.28;51.15;;;2.70;99.90;;;;;;5045539;28;20025;-82
2021/12/09 13:04:56;;;;;;;107.53;52.65;;;2.70;99.90;;;;;;5064157;28;20021;-81
2021/12/09 13:13:30;;;;;;;101.40;50.08;;;2.80;99.90;;;;;;5059828;28;20400;-81
2021/12/09 13:21:48;;;;;;;101.07;49.50;;;2.90;99.90;;;;;;5057654;28;20041;-79
2021/12/09 13:24:45;;;;;;;107.00;51.10;;;2.90;99.90;;;;;;5043926;28;20061;-83
2021/12/09 13:49:44;;;;;;;100.18;49.38;;;2.80;99.90;;;;;;5075147;28;20317;-81
2021/12/09 13:55:17;;;;;;;99.72;50.50;;;2.70;99.90;;;;;;5058881;28;20085;-79
2021/12/09 13:57:57;;;;;;;108.30;51.10;;;2.70;99.90;;;;;;5032269;28;20497;-80
2021/12/09 14:00:25;;;;;;;97.82;51.33;;;2.60;99.90;;;;;;5025697;28;20055;-80
2021/12/09 14:02:53;;;;;;;100.13;50.45;;;2.50;99.90;;;;;;5039484;28;20037;-78
2021/12/09 14:05:19;;;;;;;104.82;51.45;;;2.40;99.90;;;;;;5040293;28;20029;-79
2021/12/09 14:07:57;;;;;;;101.68;50.05;;;2.30;99.90;;;;;;5025259;28;20060;-78
2021/12/09 14:10:28;;;;;;;105.13;51.40;;;2.40;99.90;;;;;;5030165;28;20413;-81